KPOB/POB METAR and TAF weather

Enter ICAO airport designator
Station Type Date Time Source
KPOB METAR 2021/09/17 18:55 UTC NOAA

KPOB 171855Z 03006KT 7SM SCT031 BKN060 BKN130 32/20 A3009 RMK AO2A SLPNO WND DATA ESTMD ALSTG ESTMD LAST


Station Type Date Time Source
KPOB Decoded METAR 2021/09/17 18:55 UTC NOAA

Pope Air Force Base, NC, United States (KPOB) 35-10N 079-02W 61M
Sep 17, 2021 - 02:55 PM EDT / 2021.09.17 1855 UTC
Wind: from the NNE (030 degrees) at 7 MPH (6 KT):0
Visibility: 7 mile(s):0
Sky conditions: mostly cloudy
Temperature: 89 F (32 C)
Dew Point: 68 F (20 C)
Relative Humidity: 49%
Pressure (altimeter): 30.09 in. Hg (1018 hPa)
ob: KPOB 171855Z 03006KT 7SM SCT031 BKN060 BKN130 32/20 A3009 RMK AO2A SLPNO WND DATA ESTMD ALSTG ESTMD LAST
cycle: 19

Station Type Date Time Source
KPOB TAF 2021/09/17 17:06 UTC NOAA

TAF TAF KPOB 171700Z 1717/1823 04010KT 9999 SCT025 BKN050 BKN120 QNH3005INS
BECMG 1719/1720 04010G15KT 8000 -SHRA SCT015 BKN025 BKN040 QNH3005INS
BECMG 1801/1802 02005KT 8000 BR SCT010 BKN020 QNH3008INS
TEMPO 1808/1812 04005KT 4800 BR BKN005 BKN010 OVC020
BECMG 1814/1815 04008KT 9999 NSW SCT010 BKN015 BKN025 QNH3005INS
BECMG 1818/1819 04010G15KT 8000 -SHRA SCT015 BKN025 BKN040 QNH3000INS TX30/1720Z TN22/1811Z LAST NO
AMDS AFT 1719 NEXT 2017

Example: see airport list